createdAt,value
2017-02-06T00:00:21.311Z,0
2017-02-06T00:01:06.302Z,0
2017-02-06T00:01:52.299Z,0
2017-02-06T00:02:48.322Z,0
2017-02-06T00:03:39.290Z,0
2017-02-06T00:04:24.510Z,0
2017-02-06T00:05:06.396Z,0
2017-02-06T00:05:47.805Z,0
2017-02-06T00:06:29.783Z,0
2017-02-06T00:07:33.806Z,0
2017-02-06T00:08:14.891Z,0
2017-02-06T00:08:59.830Z,0
2017-02-06T00:09:47.912Z,0
2017-02-06T00:10:30.024Z,0
2017-02-06T00:11:12.915Z,0
2017-02-06T00:11:57.889Z,0
2017-02-06T00:12:41.823Z,0
2017-02-06T00:13:28.125Z,0
2017-02-06T00:14:11.302Z,0
2017-02-06T00:14:54.440Z,0
2017-02-06T00:15:40.281Z,0
2017-02-06T00:16:20.826Z,0
2017-02-06T00:17:08.784Z,0
2017-02-06T00:17:51.877Z,0
2017-02-06T00:18:32.361Z,0
2017-02-06T00:19:15.284Z,0
2017-02-06T00:20:05.389Z,0
2017-02-06T00:20:50.798Z,0
2017-02-06T00:21:34.825Z,0
2017-02-06T00:22:20.793Z,0
2017-02-06T00:23:07.911Z,0
2017-02-06T00:24:02.014Z,0
2017-02-06T00:28:09.379Z,0
2017-02-06T00:28:58.318Z,0
2017-02-06T00:29:41.603Z,0
2017-02-06T00:30:23.396Z,0
2017-02-06T00:31:05.313Z,0
2017-02-06T00:31:46.708Z,0
2017-02-06T00:32:31.313Z,0
2017-02-06T00:33:13.303Z,0
2017-02-06T00:33:58.405Z,0
2017-02-06T00:34:40.903Z,0
2017-02-06T00:35:26.055Z,0
2017-02-06T00:36:09.258Z,0
2017-02-06T00:37:07.355Z,0
2017-02-06T00:37:52.313Z,0
2017-02-06T00:38:37.338Z,0
2017-02-06T00:39:24.299Z,0
2017-02-06T00:40:07.324Z,0
2017-02-06T00:40:47.792Z,0
2017-02-06T00:41:30.148Z,0
2017-02-06T00:42:14.319Z,0
2017-02-06T00:43:00.408Z,0
2017-02-06T00:43:48.405Z,0
2017-02-06T00:44:29.808Z,0
2017-02-06T00:45:12.801Z,0
2017-02-06T00:45:57.827Z,0
2017-02-06T00:46:39.083Z,0
2017-02-06T00:47:23.815Z,0
2017-02-06T00:48:07.814Z,0
2017-02-06T00:48:51.331Z,0
2017-02-06T00:49:40.301Z,0
2017-02-06T00:50:23.590Z,0
2017-02-06T00:51:19.520Z,0
2017-02-06T00:52:17.828Z,0
2017-02-06T00:53:00.889Z,0
2017-02-06T00:53:43.813Z,0
2017-02-06T00:54:25.214Z,0
2017-02-06T00:55:15.310Z,0
2017-02-06T00:55:59.389Z,0
2017-02-06T00:56:42.725Z,0
2017-02-06T00:57:28.911Z,0
2017-02-06T00:58:10.002Z,0
2017-02-06T00:58:52.924Z,0
2017-02-06T00:59:43.823Z,0
2017-02-06T01:00:26.924Z,0
2017-02-06T01:01:09.817Z,0
2017-02-06T01:03:46.569Z,0
2017-02-06T01:04:28.957Z,0
2017-02-06T01:05:20.892Z,0
2017-02-06T01:06:01.904Z,0
2017-02-06T01:06:47.900Z,0
2017-02-06T01:07:39.878Z,0
2017-02-06T01:08:28.884Z,0
2017-02-06T01:09:16.865Z,0
2017-02-06T01:10:05.165Z,0
2017-02-06T01:10:56.384Z,0
2017-02-06T01:11:38.463Z,0
2017-02-06T01:14:10.080Z,0
2017-02-06T01:14:51.041Z,0
2017-02-06T01:15:33.256Z,0
2017-02-06T01:16:25.048Z,0
2017-02-06T01:17:15.006Z,0
2017-02-06T01:17:59.014Z,0
2017-02-06T01:18:42.117Z,0
2017-02-06T01:19:24.516Z,0
2017-02-06T01:20:06.523Z,0
2017-02-06T01:20:47.760Z,0
2017-02-06T01:21:29.030Z,0
2017-02-06T01:22:12.363Z,0
2017-02-06T01:22:53.375Z,0
2017-02-06T01:23:51.045Z,0
2017-02-06T01:24:35.104Z,0
2017-02-06T01:25:16.241Z,0
2017-02-06T01:25:59.125Z,0
2017-02-06T01:26:46.117Z,0
2017-02-06T01:27:29.097Z,0
2017-02-06T01:28:24.072Z,0
2017-02-06T01:29:07.025Z,0
2017-02-06T01:29:50.006Z,0
2017-02-06T01:30:34.321Z,0
2017-02-06T01:31:20.002Z,0
2017-02-06T01:32:02.319Z,0
2017-02-06T01:32:49.096Z,0
2017-02-06T01:33:33.219Z,0
2017-02-06T01:34:17.033Z,0
2017-02-06T01:35:03.038Z,0
2017-02-06T01:35:46.039Z,0
2017-02-06T01:36:32.109Z,0
2017-02-06T01:37:13.340Z,0
2017-02-06T01:37:57.033Z,0
2017-02-06T01:38:39.100Z,0
2017-02-06T01:39:20.340Z,0
2017-02-06T01:40:05.041Z,0
2017-02-06T01:40:47.540Z,0
2017-02-06T01:41:29.736Z,0
2017-02-06T01:42:11.645Z,0
2017-02-06T01:42:55.516Z,0
2017-02-06T01:43:40.623Z,0
2017-02-06T01:44:21.104Z,0
2017-02-06T01:45:01.609Z,0
2017-02-06T01:45:47.512Z,0
2017-02-06T01:46:34.537Z,0
2017-02-06T01:47:19.518Z,0
2017-02-06T01:48:01.556Z,0
2017-02-06T01:48:44.956Z,0
2017-02-06T01:49:37.506Z,0
2017-02-06T01:50:28.604Z,0
2017-02-06T01:51:11.882Z,0
2017-02-06T01:51:52.915Z,0
2017-02-06T01:52:39.054Z,0
2017-02-06T01:53:21.033Z,0
2017-02-06T01:54:05.118Z,0
2017-02-06T01:54:52.019Z,0
2017-02-06T01:55:39.020Z,0
2017-02-06T01:56:23.206Z,0
2017-02-06T01:57:05.338Z,0
2017-02-06T01:57:48.337Z,0
2017-02-06T01:58:38.103Z,0
2017-02-06T01:59:31.027Z,0
2017-02-06T02:00:16.051Z,0
2017-02-06T02:01:02.090Z,0
2017-02-06T02:01:56.014Z,0
2017-02-06T02:02:43.023Z,0
2017-02-06T02:03:28.027Z,0
2017-02-06T02:04:17.010Z,0
2017-02-06T02:05:07.223Z,0
2017-02-06T02:05:53.014Z,0
2017-02-06T02:06:33.512Z,0
2017-02-06T02:09:03.370Z,0
2017-02-06T02:09:47.160Z,0
2017-02-06T02:10:30.380Z,0
2017-02-06T02:11:11.574Z,0
2017-02-06T02:13:29.727Z,0
2017-02-06T02:14:20.301Z,0
2017-02-06T02:15:01.490Z,0
2017-02-06T02:15:48.264Z,0
2017-02-06T02:16:31.650Z,0
2017-02-06T02:17:12.710Z,0
2017-02-06T02:17:57.772Z,0
2017-02-06T02:18:40.871Z,0
2017-02-06T02:19:23.095Z,0
2017-02-06T02:20:04.369Z,0
2017-02-06T02:20:46.350Z,0
2017-02-06T02:21:30.487Z,0
2017-02-06T02:22:15.793Z,0
2017-02-06T02:23:02.845Z,0
2017-02-06T02:23:53.757Z,0
2017-02-06T02:24:42.764Z,0
2017-02-06T02:25:26.774Z,0
2017-02-06T02:26:14.897Z,0
2017-02-06T02:26:56.877Z,0
2017-02-06T02:27:40.768Z,0
2017-02-06T02:28:22.176Z,0
2017-02-06T02:29:03.266Z,0
2017-02-06T02:29:49.617Z,0
2017-02-06T02:30:30.069Z,0
2017-02-06T02:31:12.230Z,0
2017-02-06T02:31:53.387Z,0
2017-02-06T02:32:37.265Z,0
2017-02-06T02:33:22.432Z,0
2017-02-06T02:34:05.507Z,0
2017-02-06T02:34:50.371Z,0
2017-02-06T02:35:32.275Z,0
2017-02-06T03:01:36.596Z,0
2017-02-06T03:04:56.929Z,0
2017-02-06T03:05:37.665Z,0
2017-02-06T03:06:19.904Z,0
2017-02-06T03:07:03.647Z,0
2017-02-06T03:07:53.666Z,0
2017-02-06T03:08:36.074Z,0
2017-02-06T03:09:19.095Z,0
2017-02-06T03:09:59.581Z,0
2017-02-06T03:10:41.662Z,0
2017-02-06T03:11:26.571Z,0
2017-02-06T03:12:14.559Z,0
2017-02-06T03:13:04.589Z,0
2017-02-06T03:13:49.650Z,0
2017-02-06T03:14:34.666Z,0
2017-02-06T03:15:19.657Z,0
2017-02-06T03:16:01.817Z,0
2017-02-06T03:16:46.579Z,0
2017-02-06T03:17:33.588Z,0
2017-02-06T03:18:21.667Z,0
2017-02-06T03:19:03.089Z,0
2017-02-06T03:19:48.178Z,0
2017-02-06T03:24:01.082Z,0
2017-02-06T03:24:41.018Z,0
2017-02-06T03:25:24.437Z,0
2017-02-06T03:26:05.761Z,0
2017-02-06T03:26:47.960Z,0
2017-02-06T03:27:35.071Z,0
2017-02-06T03:28:18.340Z,0
2017-02-06T03:29:08.345Z,0
2017-02-06T03:29:56.450Z,0
2017-02-06T03:30:40.380Z,0
2017-02-06T03:31:21.421Z,0
2017-02-06T03:32:09.359Z,0
2017-02-06T03:32:51.860Z,0
2017-02-06T03:33:37.862Z,0
2017-02-06T03:34:26.845Z,0
2017-02-06T03:35:09.221Z,0
2017-02-06T03:35:56.953Z,0
2017-02-06T03:36:41.835Z,0
2017-02-06T03:37:33.075Z,0
2017-02-06T03:38:15.881Z,0
2017-02-06T03:38:58.964Z,0
2017-02-06T03:39:51.861Z,0
2017-02-06T03:40:36.075Z,0
2017-02-06T03:41:18.465Z,0
2017-02-06T03:42:04.346Z,0
2017-02-06T03:42:49.348Z,0
2017-02-06T03:43:36.386Z,0
2017-02-06T03:44:21.340Z,0
2017-02-06T03:45:05.436Z,0
2017-02-06T03:45:48.446Z,0
2017-02-06T03:46:30.640Z,0
2017-02-06T03:47:13.740Z,0
2017-02-06T03:47:55.713Z,0
2017-02-06T03:48:39.344Z,0
2017-02-06T03:49:20.337Z,0
2017-02-06T03:50:02.435Z,0
2017-02-06T03:50:42.952Z,0
2017-02-06T03:53:15.292Z,0
2017-02-06T03:54:01.196Z,0
2017-02-06T03:54:44.427Z,0
2017-02-06T03:55:32.197Z,0
2017-02-06T03:56:14.448Z,0
2017-02-06T03:56:57.765Z,0
2017-02-06T03:57:44.691Z,0
2017-02-06T03:58:25.693Z,0
2017-02-06T03:59:16.693Z,0
2017-02-06T03:59:57.764Z,0
2017-02-06T04:00:43.774Z,0
2017-02-06T04:01:24.242Z,0
2017-02-06T04:02:09.171Z,0
2017-02-06T04:02:56.264Z,0
2017-02-06T04:03:40.200Z,0
2017-02-06T04:04:24.394Z,0
2017-02-06T04:05:10.170Z,0
2017-02-06T04:05:55.267Z,0
2017-02-06T04:06:35.776Z,0
2017-02-06T04:07:16.938Z,0
2017-02-06T04:08:03.791Z,0
2017-02-06T04:08:44.895Z,0
2017-02-06T04:09:28.794Z,0
2017-02-06T04:10:09.244Z,0
2017-02-06T04:10:50.262Z,0
2017-02-06T04:11:33.407Z,0
2017-02-06T04:12:14.891Z,0
2017-02-06T04:13:02.696Z,0
2017-02-06T04:13:45.785Z,0
2017-02-06T04:14:29.893Z,0
2017-02-06T04:15:10.426Z,0
2017-02-06T04:15:50.978Z,0
2017-02-06T04:16:33.193Z,0
2017-02-06T04:17:17.283Z,0
2017-02-06T04:18:01.400Z,0
2017-02-06T04:18:43.183Z,0
2017-02-06T04:19:23.671Z,0
2017-02-06T04:20:13.808Z,0
2017-02-06T04:20:59.660Z,0
2017-02-06T04:21:42.760Z,0
2017-02-06T04:22:24.700Z,0
2017-02-06T04:23:05.768Z,0
2017-02-06T04:23:48.761Z,0
2017-02-06T04:24:31.674Z,0
2017-02-06T04:25:14.705Z,0
2017-02-06T04:26:01.927Z,0
2017-02-06T04:26:45.904Z,0
2017-02-06T04:27:30.697Z,0
2017-02-06T04:28:11.997Z,0
2017-02-06T04:28:53.286Z,0
2017-02-06T04:29:44.189Z,0
2017-02-06T04:30:25.182Z,0
2017-02-06T04:31:07.381Z,0
2017-02-06T04:31:50.184Z,0
2017-02-06T04:32:35.182Z,0
2017-02-06T04:33:17.621Z,0
2017-02-06T04:33:58.909Z,0
2017-02-06T04:34:41.688Z,0
2017-02-06T04:35:25.707Z,0
2017-02-06T04:36:08.671Z,0
2017-02-06T04:36:49.157Z,0
2017-02-06T04:37:32.472Z,0
2017-02-06T04:38:13.781Z,0
2017-02-06T04:38:55.190Z,0
2017-02-06T04:39:35.748Z,0
2017-02-06T04:40:19.680Z,0
2017-02-06T04:41:02.886Z,0
2017-02-06T04:41:45.181Z,0
2017-02-06T04:42:26.214Z,0
2017-02-06T04:43:08.368Z,0
2017-02-06T04:43:52.183Z,0
2017-02-06T04:44:34.422Z,0
2017-02-06T04:45:18.264Z,0
2017-02-06T04:45:58.784Z,0
2017-02-06T04:46:41.865Z,0
2017-02-06T04:47:22.345Z,0
2017-02-06T04:48:05.209Z,0
2017-02-06T04:48:50.402Z,0
2017-02-06T04:49:33.193Z,0
2017-02-06T04:50:19.187Z,0
2017-02-06T04:51:03.178Z,0
2017-02-06T04:51:43.725Z,0
2017-02-06T04:52:26.794Z,0
2017-02-06T04:53:09.677Z,0
2017-02-06T04:53:50.189Z,0
2017-02-06T04:54:32.263Z,0
2017-02-06T04:55:13.755Z,0
2017-02-06T04:55:55.272Z,0
2017-02-06T04:56:39.169Z,0
2017-02-06T04:57:22.179Z,0
2017-02-06T04:58:03.397Z,0
2017-02-06T04:58:52.166Z,0
2017-02-06T04:59:39.188Z,0
2017-02-06T05:00:20.461Z,0
2017-02-06T05:01:00.966Z,0
2017-02-06T05:01:44.687Z,0
2017-02-06T05:02:26.057Z,0
2017-02-06T05:03:07.781Z,0
2017-02-06T05:03:49.743Z,0
2017-02-06T05:06:24.020Z,0
2017-02-06T05:07:12.085Z,0
2017-02-06T05:08:06.118Z,0
2017-02-06T05:08:50.001Z,0
2017-02-06T05:09:31.980Z,0
2017-02-06T05:10:17.011Z,0
2017-02-06T05:11:00.984Z,0
2017-02-06T05:11:42.287Z,0
2017-02-06T05:12:22.786Z,0
2017-02-06T05:13:03.349Z,0
2017-02-06T05:13:43.841Z,0
2017-02-06T05:14:24.299Z,0
2017-02-06T05:15:04.779Z,0
2017-02-06T05:15:45.248Z,0
2017-02-06T05:16:25.968Z,0
2017-02-06T05:17:07.167Z,0
2017-02-06T05:17:47.921Z,0
2017-02-06T05:18:28.638Z,0
2017-02-06T05:19:09.378Z,0
2017-02-06T05:19:49.969Z,0
2017-02-06T05:20:30.439Z,0
2017-02-06T05:21:10.948Z,0
2017-02-06T05:21:51.917Z,0
2017-02-06T05:22:32.413Z,0
2017-02-06T05:23:13.163Z,0
2017-02-06T05:23:53.639Z,0
2017-02-06T05:24:34.144Z,0
2017-02-06T05:25:14.694Z,0
2017-02-06T05:25:55.195Z,0
2017-02-06T05:26:35.691Z,0
2017-02-06T05:27:16.207Z,0
2017-02-06T05:27:56.770Z,0
2017-02-06T05:28:37.192Z,0
2017-02-06T05:29:17.941Z,0
2017-02-06T05:29:58.349Z,0
2017-02-06T05:30:38.843Z,0
2017-02-06T05:31:19.330Z,0
2017-02-06T05:31:59.812Z,0
2017-02-06T05:32:40.302Z,0
2017-02-06T05:33:20.821Z,0
2017-02-06T05:34:01.301Z,0
2017-02-06T05:34:41.778Z,0
2017-02-06T05:35:22.213Z,0
2017-02-06T05:36:02.692Z,0
2017-02-06T05:36:43.200Z,0
2017-02-06T05:37:23.712Z,0
2017-02-06T05:38:04.199Z,0
2017-02-06T05:38:44.687Z,0
2017-02-06T05:39:25.171Z,0
2017-02-06T05:40:05.667Z,0
2017-02-06T05:40:46.143Z,0
2017-02-06T05:41:26.644Z,0
2017-02-06T05:42:07.122Z,0
2017-02-06T05:42:47.657Z,0
2017-02-06T05:43:28.109Z,0
2017-02-06T05:44:08.598Z,0
2017-02-06T05:44:49.073Z,0
2017-02-06T05:45:29.554Z,0
2017-02-06T05:46:10.050Z,0
2017-02-06T05:46:50.530Z,0
2017-02-06T05:47:31.015Z,0
2017-02-06T05:48:11.526Z,0
2017-02-06T05:48:52.020Z,0
2017-02-06T05:49:32.517Z,0
2017-02-06T05:50:13.049Z,0
2017-02-06T05:50:53.540Z,0
2017-02-06T05:51:34.024Z,0
2017-02-06T05:52:14.565Z,0
2017-02-06T05:52:55.047Z,0
2017-02-06T05:53:35.535Z,0
2017-02-06T05:54:16.006Z,0
2017-02-06T05:54:58.397Z,0
2017-02-06T05:55:38.870Z,0
2017-02-06T05:56:19.350Z,0
2017-02-06T05:56:59.858Z,0
2017-02-06T05:57:40.342Z,0
2017-02-06T05:58:20.838Z,0
2017-02-06T05:59:01.321Z,0
2017-02-06T05:59:41.824Z,0
2017-02-06T06:00:22.283Z,0
2017-02-06T06:01:02.770Z,0
2017-02-06T06:01:43.284Z,0
2017-02-06T06:02:23.776Z,0
2017-02-06T06:03:04.222Z,0
2017-02-06T06:03:44.740Z,0
2017-02-06T06:04:25.207Z,0
2017-02-06T06:05:05.735Z,0
2017-02-06T06:05:46.178Z,0
2017-02-06T06:06:26.666Z,0
2017-02-06T06:07:07.188Z,0
2017-02-06T06:07:47.682Z,0
2017-02-06T06:08:28.163Z,0
2017-02-06T06:09:08.641Z,0
2017-02-06T06:09:49.107Z,0
2017-02-06T06:10:29.608Z,0
2017-02-06T06:11:10.091Z,0
2017-02-06T06:11:50.580Z,0
2017-02-06T06:12:31.082Z,0
2017-02-06T06:13:11.543Z,0
2017-02-06T06:13:52.028Z,0
2017-02-06T06:14:32.548Z,0
2017-02-06T06:15:13.082Z,0
2017-02-06T06:15:53.550Z,0
2017-02-06T06:16:34.074Z,0
2017-02-06T06:17:14.540Z,0
2017-02-06T06:17:55.011Z,0
2017-02-06T06:18:35.525Z,0
2017-02-06T06:19:15.992Z,0
2017-02-06T06:19:56.505Z,0
2017-02-06T06:20:36.987Z,0
2017-02-06T06:21:17.453Z,0
2017-02-06T06:21:57.921Z,0
2017-02-06T06:22:38.394Z,0
2017-02-06T06:23:18.909Z,0
2017-02-06T06:23:59.411Z,0
2017-02-06T06:24:39.877Z,0
2017-02-06T06:25:20.378Z,0
2017-02-06T06:26:00.878Z,0
2017-02-06T06:26:41.374Z,0
2017-02-06T06:27:21.885Z,0
2017-02-06T06:28:02.364Z,0
2017-02-06T06:28:42.856Z,0
2017-02-06T06:29:23.339Z,0
2017-02-06T06:30:03.848Z,4
2017-02-06T06:30:44.314Z,4
2017-02-06T06:31:24.796Z,0
2017-02-06T06:32:05.327Z,0
2017-02-06T06:32:45.796Z,4
2017-02-06T06:33:26.271Z,4
2017-02-06T06:34:06.819Z,4
2017-02-06T06:34:47.341Z,4
2017-02-06T06:35:27.877Z,4
2017-02-06T06:36:08.342Z,4
2017-02-06T06:36:48.918Z,4
2017-02-06T06:37:29.406Z,8
2017-02-06T06:38:09.919Z,4
2017-02-06T06:38:50.407Z,8
2017-02-06T06:39:30.921Z,8
2017-02-06T06:40:11.443Z,12
2017-02-06T06:40:51.948Z,8
2017-02-06T06:41:32.488Z,8
2017-02-06T06:42:12.941Z,12
2017-02-06T06:42:53.438Z,12
2017-02-06T06:43:33.961Z,12
2017-02-06T06:44:14.440Z,16
2017-02-06T06:44:54.892Z,20
2017-02-06T06:45:35.419Z,20
2017-02-06T06:46:15.943Z,20
2017-02-06T06:46:56.418Z,24
2017-02-06T06:47:36.962Z,24
2017-02-06T06:48:17.430Z,28
2017-02-06T06:48:57.941Z,32
2017-02-06T06:49:38.618Z,32
2017-02-06T06:50:19.063Z,36
2017-02-06T06:50:59.701Z,40
2017-02-06T06:51:40.135Z,44
2017-02-06T06:52:20.629Z,48
2017-02-06T06:53:01.142Z,48
2017-02-06T06:53:41.743Z,56
2017-02-06T06:54:22.219Z,60
2017-02-06T06:55:02.743Z,60
2017-02-06T06:55:43.256Z,64
2017-02-06T06:56:23.810Z,68
2017-02-06T06:57:04.332Z,72
2017-02-06T06:57:44.826Z,76
2017-02-06T06:58:25.344Z,80
2017-02-06T06:59:05.820Z,88
2017-02-06T06:59:46.390Z,92
2017-02-06T07:00:26.857Z,92
2017-02-06T07:01:07.384Z,96
2017-02-06T07:01:47.908Z,104
2017-02-06T07:02:28.495Z,108
2017-02-06T07:03:09.132Z,108
2017-02-06T07:03:49.798Z,108
2017-02-06T07:04:30.404Z,112
2017-02-06T07:05:11.086Z,112
2017-02-06T07:05:51.743Z,116
2017-02-06T07:06:32.265Z,120
2017-02-06T07:07:12.745Z,124
2017-02-06T07:07:53.230Z,124
2017-02-06T07:08:35.405Z,124
2017-02-06T07:09:16.210Z,124
2017-02-06T07:09:58.905Z,128
2017-02-06T07:10:40.864Z,128
2017-02-06T07:11:21.339Z,132
2017-02-06T07:13:55.093Z,148
2017-02-06T07:14:35.691Z,156
2017-02-06T07:15:16.178Z,164
2017-02-06T07:15:56.690Z,176
2017-02-06T07:16:37.172Z,180
2017-02-06T07:17:17.660Z,192
2017-02-06T07:17:58.202Z,204
2017-02-06T07:18:38.670Z,204
2017-02-06T07:19:19.216Z,208
2017-02-06T07:19:59.767Z,216
2017-02-06T07:20:40.367Z,228
2017-02-06T07:21:21.905Z,236
2017-02-06T07:22:02.452Z,248
2017-02-06T07:22:43.980Z,260
2017-02-06T07:23:24.488Z,272
2017-02-06T07:24:05.505Z,284
2017-02-06T07:24:45.851Z,300
2017-02-06T07:25:26.345Z,328
2017-02-06T07:26:06.799Z,368
2017-02-06T07:26:47.470Z,412
2017-02-06T07:27:28.017Z,452
2017-02-06T07:28:08.472Z,480
2017-02-06T07:28:49.114Z,504
2017-02-06T07:29:30.334Z,512
2017-02-06T07:30:14.614Z,520
2017-02-06T07:31:01.955Z,536
2017-02-06T07:31:47.129Z,548
2017-02-06T07:32:32.995Z,552
2017-02-06T07:33:13.162Z,544
2017-02-06T07:33:53.665Z,524
2017-02-06T07:34:34.779Z,496
2017-02-06T07:35:15.288Z,476
2017-02-06T07:35:55.798Z,468
2017-02-06T07:36:36.284Z,464
2017-02-06T07:37:16.815Z,460
2017-02-06T07:37:57.368Z,464
2017-02-06T07:38:37.919Z,460
2017-02-06T07:39:18.463Z,456
2017-02-06T07:39:59.042Z,452
2017-02-06T07:40:39.570Z,456
2017-02-06T07:41:20.120Z,460
2017-02-06T07:42:00.660Z,464
2017-02-06T07:42:41.244Z,464
2017-02-06T07:43:22.436Z,468
2017-02-06T07:44:02.945Z,476
2017-02-06T07:44:43.569Z,480
2017-02-06T07:45:24.852Z,488
2017-02-06T07:46:12.841Z,496
2017-02-06T07:47:01.203Z,504
2017-02-06T07:47:47.131Z,512
2017-02-06T07:48:34.828Z,524
2017-02-06T07:49:14.534Z,536
2017-02-06T07:49:55.178Z,544
2017-02-06T07:50:35.582Z,548
2017-02-06T07:51:16.107Z,552
2017-02-06T07:51:56.575Z,552
2017-02-06T07:52:37.819Z,560
2017-02-06T07:53:18.340Z,568
2017-02-06T07:55:32.894Z,584
2017-02-06T07:56:13.380Z,596
2017-02-06T07:56:53.934Z,604
2017-02-06T07:57:34.437Z,616
2017-02-06T07:58:14.958Z,620
2017-02-06T07:58:55.448Z,628
2017-02-06T07:59:36.025Z,632
2017-02-06T08:00:16.520Z,636
2017-02-06T08:00:56.994Z,640
2017-02-06T08:01:38.074Z,644
2017-02-06T08:02:18.621Z,640
2017-02-06T08:02:59.158Z,640
2017-02-06T08:03:39.836Z,636
2017-02-06T08:04:20.473Z,640
2017-02-06T08:05:01.045Z,644
2017-02-06T08:05:41.567Z,652
2017-02-06T08:06:22.129Z,660
2017-02-06T08:07:02.715Z,664
2017-02-06T08:07:43.241Z,664
2017-02-06T08:08:23.729Z,664
2017-02-06T08:09:04.218Z,664
2017-02-06T08:09:46.203Z,664
2017-02-06T08:10:26.810Z,668
2017-02-06T08:11:07.434Z,664
2017-02-06T08:11:48.108Z,668
2017-02-06T08:12:28.635Z,676
2017-02-06T08:13:09.122Z,688
2017-02-06T08:13:49.611Z,700
2017-02-06T08:14:30.592Z,704
2017-02-06T08:15:11.105Z,712
2017-02-06T08:15:53.427Z,716
2017-02-06T08:16:34.001Z,724
2017-02-06T08:17:14.586Z,736
2017-02-06T08:17:55.154Z,752
2017-02-06T08:18:35.656Z,768
2017-02-06T08:19:16.163Z,796
2017-02-06T08:19:56.820Z,832
2017-02-06T08:20:37.487Z,876
2017-02-06T08:21:18.156Z,912
2017-02-06T08:21:59.032Z,932
2017-02-06T08:22:39.615Z,960
2017-02-06T08:23:20.180Z,988
2017-02-06T08:24:00.924Z,1016
2017-02-06T08:24:42.443Z,1032
2017-02-06T08:25:23.295Z,1040
2017-02-06T08:26:04.744Z,1048
2017-02-06T08:26:45.451Z,1064
2017-02-06T08:27:26.835Z,1084
2017-02-06T08:28:07.514Z,1104
2017-02-06T08:28:49.582Z,1124
2017-02-06T08:29:29.900Z,1148
2017-02-06T08:30:10.405Z,1172
2017-02-06T08:30:51.032Z,1208
2017-02-06T08:31:31.727Z,1248
2017-02-06T08:32:12.431Z,1292
2017-02-06T08:32:53.086Z,1332
2017-02-06T08:33:33.676Z,1356
2017-02-06T08:34:14.216Z,1368
2017-02-06T08:34:55.587Z,1384
2017-02-06T08:35:36.118Z,1412
2017-02-06T08:36:16.606Z,1432
2017-02-06T08:36:57.173Z,1448
2017-02-06T08:37:37.694Z,1464
2017-02-06T08:38:18.175Z,1484
2017-02-06T08:39:00.386Z,1508
2017-02-06T08:39:42.467Z,1528
2017-02-06T08:40:22.998Z,1544
2017-02-06T08:41:03.673Z,1560
2017-02-06T08:41:44.165Z,1564
2017-02-06T08:42:26.338Z,1572
2017-02-06T08:43:06.864Z,1580
2017-02-06T08:43:48.271Z,1584
2017-02-06T08:44:30.657Z,1588
2017-02-06T08:45:13.929Z,1588
2017-02-06T08:45:56.360Z,1588
2017-02-06T08:46:36.884Z,1580
2017-02-06T08:47:17.458Z,1564
2017-02-06T08:47:58.173Z,1544
2017-02-06T08:48:38.824Z,1524
2017-02-06T08:49:19.368Z,1500
2017-02-06T08:52:02.276Z,1372
2017-02-06T08:52:50.606Z,1352
2017-02-06T08:53:35.702Z,1344
2017-02-06T08:54:25.957Z,1340
2017-02-06T08:55:05.521Z,1336
2017-02-06T08:55:46.041Z,1336
2017-02-06T08:56:26.649Z,1348
2017-02-06T08:57:08.463Z,1364
2017-02-06T08:57:53.356Z,1376
2017-02-06T08:58:33.884Z,1384
2017-02-06T08:59:14.377Z,1404
2017-02-06T08:59:54.875Z,1416
2017-02-06T09:00:35.377Z,1424
2017-02-06T09:01:15.909Z,1432
2017-02-06T09:01:57.470Z,1456
2017-02-06T09:02:38.018Z,1484
2017-02-06T09:03:19.460Z,1504
2017-02-06T09:04:02.692Z,1536
2017-02-06T09:04:44.676Z,1568
2017-02-06T09:05:26.113Z,1588
2017-02-06T09:06:07.330Z,1616
2017-02-06T09:06:47.756Z,1636
2017-02-06T09:12:14.654Z,1764
2017-02-06T09:12:55.222Z,1804
2017-02-06T09:13:35.683Z,1844
2017-02-06T09:14:17.844Z,1876
2017-02-06T09:15:01.879Z,1904
2017-02-06T09:17:42.841Z,1916
2017-02-06T09:18:23.306Z,1900
2017-02-06T09:19:03.835Z,1876
2017-02-06T09:19:44.328Z,1848
2017-02-06T09:20:24.827Z,1824
2017-02-06T09:21:05.312Z,1812
2017-02-06T09:21:45.765Z,1808
2017-02-06T09:22:26.322Z,1812
2017-02-06T09:23:06.827Z,1820
2017-02-06T09:23:47.323Z,1808
2017-02-06T09:24:27.827Z,1828
2017-02-06T09:25:08.306Z,1852
2017-02-06T09:25:48.794Z,1860
2017-02-06T09:26:29.325Z,1872
2017-02-06T09:27:09.805Z,1872
2017-02-06T09:27:50.299Z,1844
2017-02-06T09:28:30.776Z,1844
2017-02-06T09:29:11.247Z,1844
2017-02-06T09:29:51.903Z,1860
2017-02-06T09:30:32.432Z,1848
2017-02-06T09:31:12.920Z,1864
2017-02-06T09:31:54.055Z,1856
2017-02-06T09:32:35.502Z,1868
2017-02-06T09:33:15.980Z,1888
2017-02-06T09:33:56.563Z,1912
2017-02-06T09:34:37.496Z,1944
2017-02-06T09:35:18.801Z,1988
2017-02-06T09:36:00.740Z,2040
2017-02-06T09:36:42.344Z,2092
2017-02-06T09:37:23.058Z,2140
2017-02-06T09:38:04.145Z,2196
2017-02-06T09:38:44.751Z,2236
2017-02-06T09:39:25.850Z,2272
2017-02-06T09:40:06.346Z,2312
2017-02-06T09:40:46.876Z,2348
2017-02-06T09:41:27.415Z,2388
2017-02-06T09:42:08.016Z,2428
2017-02-06T09:42:48.426Z,2476
2017-02-06T09:43:29.058Z,2516
2017-02-06T09:44:09.586Z,2560
2017-02-06T09:44:50.149Z,2604
2017-02-06T09:45:31.649Z,2648
2017-02-06T09:46:12.201Z,2684
2017-02-06T09:46:52.686Z,2736
2017-02-06T09:47:33.194Z,2784
2017-02-06T09:48:13.700Z,2832
2017-02-06T09:48:54.845Z,2876
2017-02-06T09:49:35.363Z,2924
2017-02-06T09:50:15.928Z,2976
2017-02-06T09:50:56.416Z,3032
2017-02-06T09:51:36.978Z,3088
2017-02-06T09:52:17.441Z,3144
2017-02-06T09:52:57.934Z,3200
2017-02-06T09:53:38.456Z,3260
2017-02-06T09:54:18.957Z,3316
2017-02-06T09:54:59.580Z,3364
2017-02-06T09:55:40.077Z,3408
2017-02-06T09:56:20.592Z,3436
2017-02-06T09:57:01.094Z,3460
2017-02-06T09:57:41.630Z,3476
2017-02-06T09:58:22.153Z,3500
2017-02-06T09:59:02.647Z,3524
2017-02-06T09:59:44.815Z,3556
2017-02-06T10:00:25.304Z,3620
2017-02-06T10:01:05.804Z,3676
2017-02-06T10:01:46.291Z,3752
2017-02-06T10:02:26.908Z,3824
2017-02-06T10:03:08.774Z,3888
2017-02-06T10:03:51.640Z,3952
2017-02-06T10:04:33.443Z,4000
2017-02-06T10:05:13.891Z,4052
2017-02-06T10:05:54.414Z,4088
2017-02-06T10:06:37.018Z,4116
2017-02-06T10:07:18.263Z,4132
2017-02-06T10:07:58.835Z,4144
2017-02-06T10:08:39.518Z,4148
2017-02-06T10:09:19.985Z,4152
2017-02-06T10:10:00.479Z,4156
2017-02-06T10:10:40.991Z,4176
2017-02-06T10:11:21.478Z,4200
2017-02-06T10:12:06.749Z,4244
2017-02-06T10:12:47.262Z,4288
2017-02-06T10:13:27.771Z,4328
2017-02-06T10:14:08.295Z,4372
2017-02-06T10:14:48.915Z,4408
2017-02-06T10:15:29.542Z,4428
2017-02-06T10:16:10.057Z,4456
2017-02-06T10:16:50.542Z,4488
2017-02-06T10:17:31.058Z,4512
2017-02-06T10:18:11.594Z,4544
2017-02-06T10:18:52.137Z,4568
2017-02-06T10:19:32.801Z,4600
2017-02-06T10:20:13.246Z,4632
2017-02-06T10:20:53.738Z,4656
2017-02-06T10:21:34.582Z,4680
2017-02-06T10:22:15.069Z,4664
2017-02-06T10:22:55.815Z,4704
2017-02-06T10:23:36.442Z,4744
2017-02-06T10:24:17.012Z,4780
2017-02-06T10:24:59.516Z,4844
2017-02-06T10:25:40.024Z,4904
2017-02-06T10:26:20.701Z,4740
2017-02-06T10:27:01.187Z,4948
2017-02-06T10:27:41.932Z,5076
2017-02-06T10:28:22.622Z,5044
2017-02-06T10:29:04.674Z,5264
2017-02-06T10:29:45.158Z,5324
2017-02-06T10:30:26.012Z,4960
2017-02-06T10:31:06.586Z,5316
2017-02-06T10:31:47.350Z,5500
2017-02-06T10:32:28.441Z,5600
2017-02-06T10:33:08.956Z,5664
2017-02-06T10:33:49.516Z,5648
2017-02-06T10:34:29.955Z,5552
2017-02-06T10:35:10.578Z,5636
2017-02-06T10:35:51.201Z,5616
2017-02-06T10:36:31.768Z,5416
2017-02-06T10:37:12.284Z,5688
2017-02-06T10:37:52.759Z,5740
2017-02-06T10:38:33.246Z,5976
2017-02-06T10:39:13.731Z,6056
2017-02-06T10:39:54.251Z,6008
2017-02-06T10:40:34.787Z,5948
2017-02-06T10:41:17.443Z,6040
2017-02-06T10:41:57.920Z,5484
2017-02-06T10:42:38.416Z,5244
2017-02-06T10:43:18.886Z,5736
2017-02-06T10:43:59.413Z,5692
2017-02-06T10:44:39.907Z,5856
2017-02-06T10:45:20.480Z,5896
2017-02-06T10:46:01.133Z,6056
2017-02-06T10:46:41.783Z,5724
2017-02-06T10:47:22.351Z,5844
2017-02-06T10:48:02.943Z,5484
2017-02-06T10:48:43.516Z,5372
2017-02-06T10:49:25.427Z,5872
2017-02-06T10:50:10.005Z,5732
2017-02-06T10:50:56.494Z,5416
2017-02-06T10:51:36.221Z,5528
2017-02-06T10:52:16.708Z,5276
2017-02-06T10:52:57.175Z,5192
2017-02-06T10:53:37.716Z,4444
2017-02-06T10:54:18.174Z,4676
2017-02-06T10:54:59.119Z,5964
2017-02-06T10:55:39.601Z,6184
2017-02-06T10:56:20.179Z,6280
2017-02-06T10:57:00.697Z,5696
2017-02-06T10:57:41.196Z,5928
2017-02-06T10:58:21.675Z,6212
2017-02-06T10:59:02.301Z,5884
2017-02-06T10:59:42.805Z,6292
2017-02-06T11:00:23.401Z,6552